sensor_id;sensor_type;location;lat;lon;timestamp;P1;durP1;ratioP1;P2;durP2;ratioP2
71606;SDS011;60641;53.556;9.914;2022-11-20T00:01:13;8.00;;;2.50;;
71606;SDS011;60641;53.556;9.914;2022-11-20T00:03:43;7.10;;;2.20;;
71606;SDS011;60641;53.556;9.914;2022-11-20T00:06:11;7.00;;;2.40;;
71606;SDS011;60641;53.556;9.914;2022-11-20T00:08:39;7.10;;;2.50;;
71606;SDS011;60641;53.556;9.914;2022-11-20T00:11:06;7.40;;;2.20;;
71606;SDS011;60641;53.556;9.914;2022-11-20T00:13:33;8.70;;;2.30;;
71606;SDS011;60641;53.556;9.914;2022-11-20T00:16:00;7.30;;;2.50;;
71606;SDS011;60641;53.556;9.914;2022-11-20T00:18:28;7.40;;;2.20;;
71606;SDS011;60641;53.556;9.914;2022-11-20T00:21:00;7.00;;;2.20;;
71606;SDS011;60641;53.556;9.914;2022-11-20T00:23:30;7.60;;;2.30;;
71606;SDS011;60641;53.556;9.914;2022-11-20T00:25:56;7.70;;;2.40;;
71606;SDS011;60641;53.556;9.914;2022-11-20T00:28:27;6.70;;;2.40;;
71606;SDS011;60641;53.556;9.914;2022-11-20T00:31:00;6.40;;;2.20;;
71606;SDS011;60641;53.556;9.914;2022-11-20T00:33:47;7.80;;;2.50;;
71606;SDS011;60641;53.556;9.914;2022-11-20T00:36:15;6.20;;;2.30;;
71606;SDS011;60641;53.556;9.914;2022-11-20T00:38:43;7.50;;;2.50;;
71606;SDS011;60641;53.556;9.914;2022-11-20T00:41:11;6.70;;;2.30;;
71606;SDS011;60641;53.556;9.914;2022-11-20T00:43:39;8.90;;;3.10;;
71606;SDS011;60641;53.556;9.914;2022-11-20T00:46:24;7.30;;;2.70;;
71606;SDS011;60641;53.556;9.914;2022-11-20T00:48:52;6.70;;;2.60;;
71606;SDS011;60641;53.556;9.914;2022-11-20T00:51:20;5.70;;;2.00;;
71606;SDS011;60641;53.556;9.914;2022-11-20T00:53:47;7.40;;;2.40;;
71606;SDS011;60641;53.556;9.914;2022-11-20T00:56:15;8.40;;;2.40;;
71606;SDS011;60641;53.556;9.914;2022-11-20T00:58:45;7.10;;;2.30;;
71606;SDS011;60641;53.556;9.914;2022-11-20T01:01:17;6.40;;;2.20;;
71606;SDS011;60641;53.556;9.914;2022-11-20T01:03:46;7.80;;;2.60;;
71606;SDS011;60641;53.556;9.914;2022-11-20T01:06:16;6.90;;;2.50;;
71606;SDS011;60641;53.556;9.914;2022-11-20T01:08:46;7.60;;;2.50;;
71606;SDS011;60641;53.556;9.914;2022-11-20T01:11:14;7.00;;;2.50;;
71606;SDS011;60641;53.556;9.914;2022-11-20T01:13:43;6.80;;;2.40;;
71606;SDS011;60641;53.556;9.914;2022-11-20T01:16:11;7.50;;;2.30;;
71606;SDS011;60641;53.556;9.914;2022-11-20T01:18:40;6.70;;;2.40;;
71606;SDS011;60641;53.556;9.914;2022-11-20T01:21:10;7.50;;;2.30;;
71606;SDS011;60641;53.556;9.914;2022-11-20T01:23:38;8.20;;;3.10;;
71606;SDS011;60641;53.556;9.914;2022-11-20T01:26:07;6.30;;;2.30;;
71606;SDS011;60641;53.556;9.914;2022-11-20T01:28:37;7.30;;;2.30;;
71606;SDS011;60641;53.556;9.914;2022-11-20T01:31:15;6.70;;;2.40;;
71606;SDS011;60641;53.556;9.914;2022-11-20T01:33:50;11.20;;;2.20;;
71606;SDS011;60641;53.556;9.914;2022-11-20T01:36:18;6.20;;;2.10;;
71606;SDS011;60641;53.556;9.914;2022-11-20T01:38:45;5.90;;;2.60;;
71606;SDS011;60641;53.556;9.914;2022-11-20T01:41:13;6.20;;;2.30;;
71606;SDS011;60641;53.556;9.914;2022-11-20T01:44:01;6.60;;;2.30;;
71606;SDS011;60641;53.556;9.914;2022-11-20T01:46:28;6.20;;;2.30;;
71606;SDS011;60641;53.556;9.914;2022-11-20T01:49:38;7.70;;;2.40;;
71606;SDS011;60641;53.556;9.914;2022-11-20T01:51:59;6.70;;;2.30;;
71606;SDS011;60641;53.556;9.914;2022-11-20T01:54:31;5.10;;;1.90;;
71606;SDS011;60641;53.556;9.914;2022-11-20T01:57:02;6.90;;;2.20;;
71606;SDS011;60641;53.556;9.914;2022-11-20T01:59:30;6.50;;;2.40;;
71606;SDS011;60641;53.556;9.914;2022-11-20T02:01:57;6.60;;;2.50;;
71606;SDS011;60641;53.556;9.914;2022-11-20T02:04:24;6.10;;;2.20;;
71606;SDS011;60641;53.556;9.914;2022-11-20T02:06:56;6.60;;;2.40;;
71606;SDS011;60641;53.556;9.914;2022-11-20T02:09:26;7.80;;;2.40;;
71606;SDS011;60641;53.556;9.914;2022-11-20T02:11:53;6.10;;;2.60;;
71606;SDS011;60641;53.556;9.914;2022-11-20T02:14:20;7.00;;;2.40;;
71606;SDS011;60641;53.556;9.914;2022-11-20T02:16:48;6.70;;;2.00;;
71606;SDS011;60641;53.556;9.914;2022-11-20T02:19:26;5.70;;;2.30;;
71606;SDS011;60641;53.556;9.914;2022-11-20T02:22:17;6.70;;;2.70;;
71606;SDS011;60641;53.556;9.914;2022-11-20T02:24:41;9.60;;;2.70;;
71606;SDS011;60641;53.556;9.914;2022-11-20T02:27:12;6.40;;;2.50;;
71606;SDS011;60641;53.556;9.914;2022-11-20T02:29:42;6.80;;;2.70;;
71606;SDS011;60641;53.556;9.914;2022-11-20T02:32:20;7.20;;;2.60;;
71606;SDS011;60641;53.556;9.914;2022-11-20T02:34:47;6.70;;;2.70;;
71606;SDS011;60641;53.556;9.914;2022-11-20T02:37:14;6.20;;;2.40;;
71606;SDS011;60641;53.556;9.914;2022-11-20T02:39:41;7.70;;;2.60;;
71606;SDS011;60641;53.556;9.914;2022-11-20T02:42:09;7.30;;;2.70;;
71606;SDS011;60641;53.556;9.914;2022-11-20T02:44:35;6.80;;;2.50;;
71606;SDS011;60641;53.556;9.914;2022-11-20T02:47:02;6.70;;;2.40;;
71606;SDS011;60641;53.556;9.914;2022-11-20T02:49:29;8.00;;;2.40;;
71606;SDS011;60641;53.556;9.914;2022-11-20T02:51:55;6.70;;;2.50;;
71606;SDS011;60641;53.556;9.914;2022-11-20T02:54:22;6.50;;;2.40;;
71606;SDS011;60641;53.556;9.914;2022-11-20T02:56:49;7.30;;;2.70;;
71606;SDS011;60641;53.556;9.914;2022-11-20T02:59:15;7.60;;;2.50;;
71606;SDS011;60641;53.556;9.914;2022-11-20T03:01:42;7.70;;;2.80;;
71606;SDS011;60641;53.556;9.914;2022-11-20T03:04:08;6.60;;;2.60;;
71606;SDS011;60641;53.556;9.914;2022-11-20T03:06:35;8.70;;;2.60;;
71606;SDS011;60641;53.556;9.914;2022-11-20T03:09:01;8.40;;;3.00;;
71606;SDS011;60641;53.556;9.914;2022-11-20T03:11:28;6.60;;;2.60;;
71606;SDS011;60641;53.556;9.914;2022-11-20T03:13:55;7.30;;;2.50;;
71606;SDS011;60641;53.556;9.914;2022-11-20T03:16:22;6.50;;;2.60;;
71606;SDS011;60641;53.556;9.914;2022-11-20T03:18:49;7.40;;;2.90;;
71606;SDS011;60641;53.556;9.914;2022-11-20T03:21:16;7.40;;;3.00;;
71606;SDS011;60641;53.556;9.914;2022-11-20T03:23:42;7.40;;;2.60;;
71606;SDS011;60641;53.556;9.914;2022-11-20T03:26:19;6.10;;;2.30;;
71606;SDS011;60641;53.556;9.914;2022-11-20T03:28:57;9.50;;;2.60;;
71606;SDS011;60641;53.556;9.914;2022-11-20T03:31:26;7.90;;;2.70;;
71606;SDS011;60641;53.556;9.914;2022-11-20T03:33:53;7.20;;;2.80;;
71606;SDS011;60641;53.556;9.914;2022-11-20T03:36:20;6.70;;;2.60;;
71606;SDS011;60641;53.556;9.914;2022-11-20T03:38:47;7.10;;;2.60;;
71606;SDS011;60641;53.556;9.914;2022-11-20T03:41:21;7.20;;;2.50;;
71606;SDS011;60641;53.556;9.914;2022-11-20T03:43:50;6.00;;;2.40;;
71606;SDS011;60641;53.556;9.914;2022-11-20T03:46:20;7.00;;;2.40;;
71606;SDS011;60641;53.556;9.914;2022-11-20T03:48:47;9.30;;;2.50;;
71606;SDS011;60641;53.556;9.914;2022-11-20T03:51:15;6.40;;;2.20;;
71606;SDS011;60641;53.556;9.914;2022-11-20T03:53:52;7.00;;;2.80;;
71606;SDS011;60641;53.556;9.914;2022-11-20T03:56:24;6.90;;;2.50;;
71606;SDS011;60641;53.556;9.914;2022-11-20T03:58:52;6.00;;;2.50;;
71606;SDS011;60641;53.556;9.914;2022-11-20T04:01:20;7.10;;;2.50;;
71606;SDS011;60641;53.556;9.914;2022-11-20T04:03:52;9.60;;;2.70;;
71606;SDS011;60641;53.556;9.914;2022-11-20T04:06:23;6.70;;;2.20;;
71606;SDS011;60641;53.556;9.914;2022-11-20T04:08:51;6.50;;;2.50;;
71606;SDS011;60641;53.556;9.914;2022-11-20T04:13:50;6.20;;;2.30;;
71606;SDS011;60641;53.556;9.914;2022-11-20T04:16:19;7.00;;;2.50;;
71606;SDS011;60641;53.556;9.914;2022-11-20T04:18:46;7.60;;;2.50;;
71606;SDS011;60641;53.556;9.914;2022-11-20T04:21:12;6.10;;;2.30;;
71606;SDS011;60641;53.556;9.914;2022-11-20T04:23:39;6.90;;;2.40;;
71606;SDS011;60641;53.556;9.914;2022-11-20T04:26:06;7.70;;;2.40;;
71606;SDS011;60641;53.556;9.914;2022-11-20T04:28:34;9.00;;;2.70;;
71606;SDS011;60641;53.556;9.914;2022-11-20T04:31:02;6.60;;;2.30;;
71606;SDS011;60641;53.556;9.914;2022-11-20T04:33:29;9.40;;;2.40;;
71606;SDS011;60641;53.556;9.914;2022-11-20T04:35:59;7.10;;;2.60;;
71606;SDS011;60641;53.556;9.914;2022-11-20T04:38:27;7.20;;;2.50;;
71606;SDS011;60641;53.556;9.914;2022-11-20T04:41:00;6.70;;;2.20;;
71606;SDS011;60641;53.556;9.914;2022-11-20T04:43:28;6.90;;;2.30;;
71606;SDS011;60641;53.556;9.914;2022-11-20T04:45:55;5.80;;;2.10;;
71606;SDS011;60641;53.556;9.914;2022-11-20T04:48:22;6.80;;;2.30;;
71606;SDS011;60641;53.556;9.914;2022-11-20T04:50:49;6.60;;;2.20;;
71606;SDS011;60641;53.556;9.914;2022-11-20T04:53:16;7.80;;;2.30;;
71606;SDS011;60641;53.556;9.914;2022-11-20T04:55:43;7.10;;;2.40;;
71606;SDS011;60641;53.556;9.914;2022-11-20T04:58:09;7.10;;;2.10;;
71606;SDS011;60641;53.556;9.914;2022-11-20T05:00:36;5.80;;;2.20;;
71606;SDS011;60641;53.556;9.914;2022-11-20T05:03:02;5.10;;;2.10;;
71606;SDS011;60641;53.556;9.914;2022-11-20T05:05:29;6.10;;;2.10;;
71606;SDS011;60641;53.556;9.914;2022-11-20T05:07:56;8.00;;;2.50;;
71606;SDS011;60641;53.556;9.914;2022-11-20T05:10:24;7.50;;;2.20;;
71606;SDS011;60641;53.556;9.914;2022-11-20T05:12:51;5.50;;;2.20;;
71606;SDS011;60641;53.556;9.914;2022-11-20T05:15:18;7.50;;;2.40;;
71606;SDS011;60641;53.556;9.914;2022-11-20T05:17:48;5.40;;;2.10;;
71606;SDS011;60641;53.556;9.914;2022-11-20T05:20:15;6.20;;;2.50;;
71606;SDS011;60641;53.556;9.914;2022-11-20T05:22:42;6.30;;;2.20;;
71606;SDS011;60641;53.556;9.914;2022-11-20T05:25:09;8.30;;;2.50;;
71606;SDS011;60641;53.556;9.914;2022-11-20T05:27:36;7.30;;;2.40;;
71606;SDS011;60641;53.556;9.914;2022-11-20T05:30:03;6.80;;;2.00;;
71606;SDS011;60641;53.556;9.914;2022-11-20T05:32:30;6.40;;;2.40;;
71606;SDS011;60641;53.556;9.914;2022-11-20T05:34:57;7.20;;;2.40;;
71606;SDS011;60641;53.556;9.914;2022-11-20T05:37:23;7.60;;;2.70;;
71606;SDS011;60641;53.556;9.914;2022-11-20T05:39:50;7.70;;;2.70;;
71606;SDS011;60641;53.556;9.914;2022-11-20T05:42:16;7.60;;;3.00;;
71606;SDS011;60641;53.556;9.914;2022-11-20T05:45:01;9.00;;;2.90;;
71606;SDS011;60641;53.556;9.914;2022-11-20T05:47:33;8.20;;;3.00;;
71606;SDS011;60641;53.556;9.914;2022-11-20T05:50:00;8.10;;;3.20;;
71606;SDS011;60641;53.556;9.914;2022-11-20T05:52:28;7.10;;;2.70;;
71606;SDS011;60641;53.556;9.914;2022-11-20T05:54:55;7.80;;;3.00;;
71606;SDS011;60641;53.556;9.914;2022-11-20T05:57:21;6.60;;;2.70;;
71606;SDS011;60641;53.556;9.914;2022-11-20T05:59:48;7.90;;;2.60;;
71606;SDS011;60641;53.556;9.914;2022-11-20T06:02:14;7.80;;;2.90;;
71606;SDS011;60641;53.556;9.914;2022-11-20T06:04:41;7.40;;;2.70;;
71606;SDS011;60641;53.556;9.914;2022-11-20T06:07:08;8.00;;;2.90;;
71606;SDS011;60641;53.556;9.914;2022-11-20T06:09:34;6.90;;;2.60;;
71606;SDS011;60641;53.556;9.914;2022-11-20T06:12:01;8.30;;;2.90;;
71606;SDS011;60641;53.556;9.914;2022-11-20T06:14:28;9.20;;;3.10;;
71606;SDS011;60641;53.556;9.914;2022-11-20T06:16:54;8.90;;;3.00;;
71606;SDS011;60641;53.556;9.914;2022-11-20T06:19:21;12.50;;;4.90;;
71606;SDS011;60641;53.556;9.914;2022-11-20T06:21:48;11.30;;;4.70;;
71606;SDS011;60641;53.556;9.914;2022-11-20T06:24:15;9.90;;;3.70;;
71606;SDS011;60641;53.556;9.914;2022-11-20T06:26:42;12.00;;;3.30;;
71606;SDS011;60641;53.556;9.914;2022-11-20T06:29:09;8.10;;;2.80;;
71606;SDS011;60641;53.556;9.914;2022-11-20T06:31:36;7.50;;;3.00;;
71606;SDS011;60641;53.556;9.914;2022-11-20T06:34:04;10.60;;;3.10;;
71606;SDS011;60641;53.556;9.914;2022-11-20T06:36:32;8.10;;;2.90;;
71606;SDS011;60641;53.556;9.914;2022-11-20T06:38:59;7.40;;;2.70;;
71606;SDS011;60641;53.556;9.914;2022-11-20T06:41:26;7.90;;;2.60;;
71606;SDS011;60641;53.556;9.914;2022-11-20T06:43:54;6.90;;;2.70;;
71606;SDS011;60641;53.556;9.914;2022-11-20T06:46:20;7.10;;;2.70;;
71606;SDS011;60641;53.556;9.914;2022-11-20T06:48:47;7.70;;;2.60;;
71606;SDS011;60641;53.556;9.914;2022-11-20T06:51:14;8.40;;;2.40;;
71606;SDS011;60641;53.556;9.914;2022-11-20T06:53:41;7.50;;;2.60;;
71606;SDS011;60641;53.556;9.914;2022-11-20T06:56:07;8.90;;;2.90;;
71606;SDS011;60641;53.556;9.914;2022-11-20T06:58:34;7.00;;;2.80;;
71606;SDS011;60641;53.556;9.914;2022-11-20T07:01:03;7.30;;;2.60;;
71606;SDS011;60641;53.556;9.914;2022-11-20T07:03:39;7.10;;;2.60;;
71606;SDS011;60641;53.556;9.914;2022-11-20T07:06:07;7.70;;;2.90;;
71606;SDS011;60641;53.556;9.914;2022-11-20T07:08:34;8.10;;;2.90;;
71606;SDS011;60641;53.556;9.914;2022-11-20T07:11:03;6.90;;;2.70;;
71606;SDS011;60641;53.556;9.914;2022-11-20T07:13:31;7.10;;;2.50;;
71606;SDS011;60641;53.556;9.914;2022-11-20T07:16:02;7.30;;;2.80;;
71606;SDS011;60641;53.556;9.914;2022-11-20T07:18:29;9.60;;;2.90;;
71606;SDS011;60641;53.556;9.914;2022-11-20T07:20:56;7.60;;;2.70;;
71606;SDS011;60641;53.556;9.914;2022-11-20T07:23:25;7.90;;;2.80;;
71606;SDS011;60641;53.556;9.914;2022-11-20T07:25:52;7.30;;;3.00;;
71606;SDS011;60641;53.556;9.914;2022-11-20T07:28:18;7.40;;;2.90;;
71606;SDS011;60641;53.556;9.914;2022-11-20T07:30:51;7.20;;;2.40;;
71606;SDS011;60641;53.556;9.914;2022-11-20T07:33:18;7.10;;;2.80;;
71606;SDS011;60641;53.556;9.914;2022-11-20T07:35:45;9.00;;;3.00;;
71606;SDS011;60641;53.556;9.914;2022-11-20T07:38:12;9.80;;;3.10;;
71606;SDS011;60641;53.556;9.914;2022-11-20T07:40:38;6.90;;;2.80;;
71606;SDS011;60641;53.556;9.914;2022-11-20T07:43:05;7.10;;;3.00;;
71606;SDS011;60641;53.556;9.914;2022-11-20T07:45:31;8.20;;;3.00;;
71606;SDS011;60641;53.556;9.914;2022-11-20T07:47:58;8.40;;;2.80;;
71606;SDS011;60641;53.556;9.914;2022-11-20T07:50:24;9.00;;;4.30;;
71606;SDS011;60641;53.556;9.914;2022-11-20T07:52:50;10.20;;;3.70;;
71606;SDS011;60641;53.556;9.914;2022-11-20T07:55:18;8.90;;;3.20;;
71606;SDS011;60641;53.556;9.914;2022-11-20T07:57:44;10.60;;;3.40;;
71606;SDS011;60641;53.556;9.914;2022-11-20T08:00:11;7.90;;;3.00;;
71606;SDS011;60641;53.556;9.914;2022-11-20T08:02:38;8.70;;;3.20;;
71606;SDS011;60641;53.556;9.914;2022-11-20T08:05:05;6.60;;;2.90;;
71606;SDS011;60641;53.556;9.914;2022-11-20T08:07:36;7.30;;;2.90;;
71606;SDS011;60641;53.556;9.914;2022-11-20T08:10:06;8.10;;;2.90;;
71606;SDS011;60641;53.556;9.914;2022-11-20T08:12:33;9.30;;;3.10;;
71606;SDS011;60641;53.556;9.914;2022-11-20T08:15:18;9.60;;;4.30;;
71606;SDS011;60641;53.556;9.914;2022-11-20T08:17:45;10.50;;;3.30;;
71606;SDS011;60641;53.556;9.914;2022-11-20T08:20:11;8.00;;;3.00;;
71606;SDS011;60641;53.556;9.914;2022-11-20T08:22:38;6.50;;;2.60;;
71606;SDS011;60641;53.556;9.914;2022-11-20T08:25:04;10.60;;;2.90;;
71606;SDS011;60641;53.556;9.914;2022-11-20T08:27:31;9.80;;;2.50;;
71606;SDS011;60641;53.556;9.914;2022-11-20T08:29:58;8.60;;;3.20;;
71606;SDS011;60641;53.556;9.914;2022-11-20T08:32:24;6.50;;;2.30;;
71606;SDS011;60641;53.556;9.914;2022-11-20T08:34:50;6.70;;;2.50;;
71606;SDS011;60641;53.556;9.914;2022-11-20T08:37:18;7.20;;;2.40;;
71606;SDS011;60641;53.556;9.914;2022-11-20T08:39:45;7.30;;;2.60;;
71606;SDS011;60641;53.556;9.914;2022-11-20T08:42:11;6.50;;;2.50;;
71606;SDS011;60641;53.556;9.914;2022-11-20T08:44:37;5.90;;;2.30;;
71606;SDS011;60641;53.556;9.914;2022-11-20T08:47:04;7.10;;;2.30;;
71606;SDS011;60641;53.556;9.914;2022-11-20T08:49:30;7.10;;;2.10;;
71606;SDS011;60641;53.556;9.914;2022-11-20T08:51:57;6.10;;;2.00;;
71606;SDS011;60641;53.556;9.914;2022-11-20T08:54:23;6.50;;;2.30;;
71606;SDS011;60641;53.556;9.914;2022-11-20T08:56:50;11.00;;;2.60;;
71606;SDS011;60641;53.556;9.914;2022-11-20T08:59:16;11.30;;;4.90;;
71606;SDS011;60641;53.556;9.914;2022-11-20T09:01:43;7.20;;;2.50;;
71606;SDS011;60641;53.556;9.914;2022-11-20T09:04:09;6.00;;;2.20;;
71606;SDS011;60641;53.556;9.914;2022-11-20T09:06:37;7.70;;;2.90;;
71606;SDS011;60641;53.556;9.914;2022-11-20T09:09:04;7.50;;;2.70;;
71606;SDS011;60641;53.556;9.914;2022-11-20T09:11:32;7.30;;;2.00;;
71606;SDS011;60641;53.556;9.914;2022-11-20T09:13:58;4.80;;;1.80;;
71606;SDS011;60641;53.556;9.914;2022-11-20T09:16:24;5.90;;;1.90;;
71606;SDS011;60641;53.556;9.914;2022-11-20T09:18:51;4.40;;;1.80;;
71606;SDS011;60641;53.556;9.914;2022-11-20T09:21:18;5.00;;;1.80;;
71606;SDS011;60641;53.556;9.914;2022-11-20T09:23:44;5.30;;;1.90;;
71606;SDS011;60641;53.556;9.914;2022-11-20T09:26:12;6.90;;;1.70;;
71606;SDS011;60641;53.556;9.914;2022-11-20T09:28:39;3.40;;;1.40;;
71606;SDS011;60641;53.556;9.914;2022-11-20T09:31:11;4.90;;;1.90;;
71606;SDS011;60641;53.556;9.914;2022-11-20T09:33:44;7.00;;;2.00;;
71606;SDS011;60641;53.556;9.914;2022-11-20T09:36:11;8.50;;;2.00;;
71606;SDS011;60641;53.556;9.914;2022-11-20T09:38:37;9.20;;;2.10;;
71606;SDS011;60641;53.556;9.914;2022-11-20T09:41:05;9.10;;;1.70;;
71606;SDS011;60641;53.556;9.914;2022-11-20T09:46:40;4.20;;;1.30;;
71606;SDS011;60641;53.556;9.914;2022-11-20T09:52:00;4.00;;;1.50;;
71606;SDS011;60641;53.556;9.914;2022-11-20T09:54:36;4.70;;;1.50;;
71606;SDS011;60641;53.556;9.914;2022-11-20T09:57:11;6.00;;;1.70;;
71606;SDS011;60641;53.556;9.914;2022-11-20T09:59:41;4.90;;;1.50;;
71606;SDS011;60641;53.556;9.914;2022-11-20T10:02:30;3.90;;;1.50;;
71606;SDS011;60641;53.556;9.914;2022-11-20T10:07:41;5.80;;;1.70;;
71606;SDS011;60641;53.556;9.914;2022-11-20T10:10:17;7.30;;;2.80;;
71606;SDS011;60641;53.556;9.914;2022-11-20T10:13:00;5.10;;;1.90;;
71606;SDS011;60641;53.556;9.914;2022-11-20T10:15:49;6.20;;;2.50;;
71606;SDS011;60641;53.556;9.914;2022-11-20T10:29:32;3.90;;;1.40;;
71606;SDS011;60641;53.556;9.914;2022-11-20T10:32:01;3.80;;;1.50;;
71606;SDS011;60641;53.556;9.914;2022-11-20T10:34:41;3.80;;;1.50;;
71606;SDS011;60641;53.556;9.914;2022-11-20T10:37:17;4.90;;;1.70;;
71606;SDS011;60641;53.556;9.914;2022-11-20T10:42:55;4.50;;;1.60;;
71606;SDS011;60641;53.556;9.914;2022-11-20T10:48:38;5.50;;;1.80;;
71606;SDS011;60641;53.556;9.914;2022-11-20T10:53:42;5.40;;;1.70;;
71606;SDS011;60641;53.556;9.914;2022-11-20T10:56:39;5.30;;;1.60;;
71606;SDS011;60641;53.556;9.914;2022-11-20T11:02:13;5.80;;;1.90;;
71606;SDS011;60641;53.556;9.914;2022-11-20T11:04:43;4.80;;;1.80;;
71606;SDS011;60641;53.556;9.914;2022-11-20T11:09:46;5.20;;;1.90;;
71606;SDS011;60641;53.556;9.914;2022-11-20T11:12:19;4.80;;;1.90;;
71606;SDS011;60641;53.556;9.914;2022-11-20T11:17:21;5.30;;;1.90;;
71606;SDS011;60641;53.556;9.914;2022-11-20T11:20:15;5.00;;;1.90;;
71606;SDS011;60641;53.556;9.914;2022-11-20T11:22:49;5.10;;;1.70;;
71606;SDS011;60641;53.556;9.914;2022-11-20T11:25:22;5.60;;;1.90;;
71606;SDS011;60641;53.556;9.914;2022-11-20T11:27:49;6.40;;;2.40;;
71606;SDS011;60641;53.556;9.914;2022-11-20T11:30:19;5.00;;;2.00;;
71606;SDS011;60641;53.556;9.914;2022-11-20T11:32:46;6.20;;;1.90;;
71606;SDS011;60641;53.556;9.914;2022-11-20T11:37:46;6.20;;;2.20;;
71606;SDS011;60641;53.556;9.914;2022-11-20T11:40:14;6.20;;;2.00;;
71606;SDS011;60641;53.556;9.914;2022-11-20T11:42:42;4.90;;;1.90;;
71606;SDS011;60641;53.556;9.914;2022-11-20T11:45:15;9.50;;;1.20;;
71606;SDS011;60641;53.556;9.914;2022-11-20T12:01:44;4.70;;;2.00;;
71606;SDS011;60641;53.556;9.914;2022-11-20T12:06:48;5.00;;;1.90;;
71606;SDS011;60641;53.556;9.914;2022-11-20T12:09:18;6.80;;;2.40;;
71606;SDS011;60641;53.556;9.914;2022-11-20T12:14:17;6.20;;;1.50;;
71606;SDS011;60641;53.556;9.914;2022-11-20T12:16:50;4.60;;;1.50;;
71606;SDS011;60641;53.556;9.914;2022-11-20T12:19:18;4.50;;;1.50;;
71606;SDS011;60641;53.556;9.914;2022-11-20T12:30:14;4.00;;;1.40;;
71606;SDS011;60641;53.556;9.914;2022-11-20T12:38:06;4.70;;;1.70;;
71606;SDS011;60641;53.556;9.914;2022-11-20T12:40:58;6.50;;;1.70;;
71606;SDS011;60641;53.556;9.914;2022-11-20T12:43:42;5.30;;;1.40;;
71606;SDS011;60641;53.556;9.914;2022-11-20T12:57:09;5.30;;;1.70;;
71606;SDS011;60641;53.556;9.914;2022-11-20T13:05:27;4.50;;;1.80;;
71606;SDS011;60641;53.556;9.914;2022-11-20T13:07:58;4.80;;;1.90;;
71606;SDS011;60641;53.556;9.914;2022-11-20T13:10:30;5.40;;;2.00;;
71606;SDS011;60641;53.556;9.914;2022-11-20T13:15:52;7.20;;;2.00;;
71606;SDS011;60641;53.556;9.914;2022-11-20T13:18:22;4.90;;;1.80;;
71606;SDS011;60641;53.556;9.914;2022-11-20T13:20:48;5.40;;;2.00;;
71606;SDS011;60641;53.556;9.914;2022-11-20T13:23:25;7.70;;;2.20;;
71606;SDS011;60641;53.556;9.914;2022-11-20T13:26:06;6.40;;;2.00;;
71606;SDS011;60641;53.556;9.914;2022-11-20T13:28:47;5.60;;;2.10;;
71606;SDS011;60641;53.556;9.914;2022-11-20T13:31:29;6.00;;;2.10;;
71606;SDS011;60641;53.556;9.914;2022-11-20T13:33:57;6.80;;;2.30;;
71606;SDS011;60641;53.556;9.914;2022-11-20T13:36:27;6.50;;;2.20;;
71606;SDS011;60641;53.556;9.914;2022-11-20T13:38:55;6.40;;;2.10;;
71606;SDS011;60641;53.556;9.914;2022-11-20T13:41:23;4.60;;;1.80;;
71606;SDS011;60641;53.556;9.914;2022-11-20T13:43:59;5.00;;;1.80;;
71606;SDS011;60641;53.556;9.914;2022-11-20T13:46:38;4.20;;;1.70;;
71606;SDS011;60641;53.556;9.914;2022-11-20T13:49:08;3.20;;;1.20;;
71606;SDS011;60641;53.556;9.914;2022-11-20T13:59:51;4.00;;;1.40;;
71606;SDS011;60641;53.556;9.914;2022-11-20T14:02:20;4.70;;;1.50;;
71606;SDS011;60641;53.556;9.914;2022-11-20T14:04:49;5.00;;;1.50;;
71606;SDS011;60641;53.556;9.914;2022-11-20T14:07:18;4.80;;;1.70;;
71606;SDS011;60641;53.556;9.914;2022-11-20T14:09:53;5.00;;;1.90;;
71606;SDS011;60641;53.556;9.914;2022-11-20T14:12:22;6.10;;;1.60;;
71606;SDS011;60641;53.556;9.914;2022-11-20T14:14:54;4.80;;;2.00;;
71606;SDS011;60641;53.556;9.914;2022-11-20T14:17:22;4.30;;;1.60;;
71606;SDS011;60641;53.556;9.914;2022-11-20T14:19:51;4.60;;;1.70;;
71606;SDS011;60641;53.556;9.914;2022-11-20T14:22:23;6.00;;;1.90;;
71606;SDS011;60641;53.556;9.914;2022-11-20T14:27:51;6.30;;;1.70;;
71606;SDS011;60641;53.556;9.914;2022-11-20T14:30:26;4.30;;;1.60;;
71606;SDS011;60641;53.556;9.914;2022-11-20T14:32:55;5.90;;;1.80;;
71606;SDS011;60641;53.556;9.914;2022-11-20T14:37:53;5.30;;;1.90;;
71606;SDS011;60641;53.556;9.914;2022-11-20T14:40:25;4.80;;;1.60;;
71606;SDS011;60641;53.556;9.914;2022-11-20T14:43:02;5.30;;;1.70;;
71606;SDS011;60641;53.556;9.914;2022-11-20T14:45:43;4.20;;;1.50;;
71606;SDS011;60641;53.556;9.914;2022-11-20T14:48:11;5.40;;;1.70;;
71606;SDS011;60641;53.556;9.914;2022-11-20T14:50:38;6.20;;;2.10;;
71606;SDS011;60641;53.556;9.914;2022-11-20T14:53:05;6.20;;;1.80;;
71606;SDS011;60641;53.556;9.914;2022-11-20T14:55:36;6.10;;;2.10;;
71606;SDS011;60641;53.556;9.914;2022-11-20T14:58:05;7.30;;;2.40;;
71606;SDS011;60641;53.556;9.914;2022-11-20T15:00:33;6.20;;;1.80;;
71606;SDS011;60641;53.556;9.914;2022-11-20T15:03:01;7.50;;;2.20;;
71606;SDS011;60641;53.556;9.914;2022-11-20T15:05:44;6.20;;;1.80;;
71606;SDS011;60641;53.556;9.914;2022-11-20T15:08:14;5.40;;;2.20;;
71606;SDS011;60641;53.556;9.914;2022-11-20T15:10:48;4.70;;;1.70;;
71606;SDS011;60641;53.556;9.914;2022-11-20T15:15:56;6.90;;;1.90;;
71606;SDS011;60641;53.556;9.914;2022-11-20T15:18:46;6.20;;;1.80;;
71606;SDS011;60641;53.556;9.914;2022-11-20T15:21:13;9.10;;;3.50;;
71606;SDS011;60641;53.556;9.914;2022-11-20T15:23:40;15.30;;;7.30;;
71606;SDS011;60641;53.556;9.914;2022-11-20T15:26:08;16.60;;;7.70;;
71606;SDS011;60641;53.556;9.914;2022-11-20T15:28:44;10.70;;;3.40;;
71606;SDS011;60641;53.556;9.914;2022-11-20T15:31:14;7.80;;;2.60;;
71606;SDS011;60641;53.556;9.914;2022-11-20T15:33:41;8.00;;;3.10;;
71606;SDS011;60641;53.556;9.914;2022-11-20T15:36:08;8.00;;;2.80;;
71606;SDS011;60641;53.556;9.914;2022-11-20T15:38:36;11.20;;;5.10;;
71606;SDS011;60641;53.556;9.914;2022-11-20T15:41:03;9.50;;;3.50;;
71606;SDS011;60641;53.556;9.914;2022-11-20T15:43:29;8.40;;;2.90;;
71606;SDS011;60641;53.556;9.914;2022-11-20T15:46:09;7.90;;;2.80;;
71606;SDS011;60641;53.556;9.914;2022-11-20T15:48:43;5.50;;;2.10;;
71606;SDS011;60641;53.556;9.914;2022-11-20T15:53:38;6.10;;;2.20;;
71606;SDS011;60641;53.556;9.914;2022-11-20T15:56:05;5.30;;;1.90;;
71606;SDS011;60641;53.556;9.914;2022-11-20T15:58:31;6.90;;;2.40;;
71606;SDS011;60641;53.556;9.914;2022-11-20T16:00:58;6.10;;;2.10;;
71606;SDS011;60641;53.556;9.914;2022-11-20T16:03:24;7.00;;;2.20;;
71606;SDS011;60641;53.556;9.914;2022-11-20T16:05:51;5.80;;;2.30;;
71606;SDS011;60641;53.556;9.914;2022-11-20T16:08:17;7.60;;;2.50;;
71606;SDS011;60641;53.556;9.914;2022-11-20T16:10:44;9.70;;;2.70;;
71606;SDS011;60641;53.556;9.914;2022-11-20T16:13:11;11.90;;;4.80;;
71606;SDS011;60641;53.556;9.914;2022-11-20T16:16:04;10.30;;;4.90;;
71606;SDS011;60641;53.556;9.914;2022-11-20T16:18:32;8.70;;;3.40;;
71606;SDS011;60641;53.556;9.914;2022-11-20T16:20:59;9.70;;;4.60;;
71606;SDS011;60641;53.556;9.914;2022-11-20T16:23:26;12.80;;;5.50;;
71606;SDS011;60641;53.556;9.914;2022-11-20T16:25:52;10.00;;;4.80;;
71606;SDS011;60641;53.556;9.914;2022-11-20T16:28:19;9.10;;;4.60;;
71606;SDS011;60641;53.556;9.914;2022-11-20T16:30:45;10.00;;;3.90;;
71606;SDS011;60641;53.556;9.914;2022-11-20T16:33:13;8.50;;;2.40;;
71606;SDS011;60641;53.556;9.914;2022-11-20T16:35:41;9.00;;;2.30;;
71606;SDS011;60641;53.556;9.914;2022-11-20T16:38:07;7.60;;;2.40;;
71606;SDS011;60641;53.556;9.914;2022-11-20T16:40:34;5.40;;;2.20;;
71606;SDS011;60641;53.556;9.914;2022-11-20T16:43:08;6.60;;;2.30;;
71606;SDS011;60641;53.556;9.914;2022-11-20T16:45:42;7.20;;;2.60;;
71606;SDS011;60641;53.556;9.914;2022-11-20T16:48:13;14.40;;;6.70;;
71606;SDS011;60641;53.556;9.914;2022-11-20T16:50:44;15.80;;;8.00;;
71606;SDS011;60641;53.556;9.914;2022-11-20T16:53:12;16.90;;;8.20;;
71606;SDS011;60641;53.556;9.914;2022-11-20T16:55:39;14.30;;;7.10;;